JON34 ESSA-ESKM
Flight info
| Callsign | JON34 |
|---|---|
| Flight time | 0h 43m |
| Altitude | FL200 |
| Route | KOGAV BOR |
| Aircraft | B190/M-S/N |
Departure
| Time | 2026-04-23 17:58 |
|---|---|
| Airport | Stockholm-Arlanda Airport (ESSA) |
Arrival
| Time | 2026-04-23 18:42 |
|---|---|
| Airport | Mora Airport (ESKM) |
| Time | Latitude | Longitude | Altitude | Speed | Heading |
|---|---|---|---|---|---|
| 2026-04-23 17:11 | 59.64615 | 17.92381 | 128 ft | 0 kts | 192° |
| 2026-04-23 17:42 | 59.64616 | 17.92382 | 128 ft | 1 kts | 192° |
| 2026-04-23 17:42 | 59.64629 | 17.92387 | 128 ft | 2 kts | 192° |
| 2026-04-23 17:42 | 59.64645 | 17.92394 | 128 ft | 2 kts | 192° |
| 2026-04-23 17:43 | 59.64659 | 17.92412 | 128 ft | 3 kts | 244° |
| 2026-04-23 17:43 | 59.64659 | 17.92447 | 128 ft | 0 kts | 282° |
| 2026-04-23 17:47 | 59.64675 | 17.92404 | 128 ft | 7 kts | 309° |
| 2026-04-23 17:48 | 59.64686 | 17.92310 | 128 ft | 14 kts | 279° |
| 2026-04-23 17:48 | 59.64708 | 17.92123 | 128 ft | 14 kts | 287° |
| 2026-04-23 17:48 | 59.64785 | 17.92065 | 128 ft | 15 kts | 10° |
| 2026-04-23 17:48 | 59.64902 | 17.92107 | 128 ft | 25 kts | 11° |
| 2026-04-23 17:49 | 59.65054 | 17.92164 | 128 ft | 23 kts | 11° |
| 2026-04-23 17:49 | 59.65210 | 17.92221 | 128 ft | 18 kts | 11° |
| 2026-04-23 17:49 | 59.65355 | 17.92272 | 128 ft | 26 kts | 8° |
| 2026-04-23 17:49 | 59.65471 | 17.92429 | 128 ft | 18 kts | 44° |
| 2026-04-23 17:50 | 59.65527 | 17.92584 | 128 ft | 13 kts | 77° |
| 2026-04-23 17:50 | 59.65579 | 17.92992 | 128 ft | 13 kts | 76° |
| 2026-04-23 17:50 | 59.65603 | 17.93174 | 128 ft | 14 kts | 77° |
| 2026-04-23 17:51 | 59.65630 | 17.93292 | 128 ft | 6 kts | 44° |
| 2026-04-23 17:51 | 59.65673 | 17.93378 | 128 ft | 9 kts | 46° |
| 2026-04-23 17:51 | 59.65725 | 17.93484 | 128 ft | 0 kts | 45° |
| 2026-04-23 17:52 | 59.65725 | 17.93485 | 128 ft | 0 kts | 45° |
| 2026-04-23 17:52 | 59.65726 | 17.93485 | 128 ft | 0 kts | 45° |
| 2026-04-23 17:52 | 59.65726 | 17.93486 | 128 ft | 0 kts | 45° |
| 2026-04-23 17:53 | 59.65726 | 17.93487 | 128 ft | 0 kts | 45° |
| 2026-04-23 17:53 | 59.65727 | 17.93487 | 128 ft | 0 kts | 45° |
| 2026-04-23 17:54 | 59.65727 | 17.93488 | 128 ft | 0 kts | 45° |
| 2026-04-23 17:55 | 59.65745 | 17.93523 | 128 ft | 14 kts | 45° |
| 2026-04-23 17:55 | 59.65829 | 17.93691 | 128 ft | 20 kts | 45° |
| 2026-04-23 17:55 | 59.65868 | 17.93813 | 128 ft | 0 kts | 73° |
| 2026-04-23 17:56 | 59.65868 | 17.93814 | 128 ft | 0 kts | 73° |
| 2026-04-23 17:57 | 59.65868 | 17.93815 | 128 ft | 0 kts | 73° |
| 2026-04-23 17:57 | 59.65915 | 17.94171 | 128 ft | 75 kts | 74° |
| 2026-04-23 17:57 | 59.66320 | 17.97765 | 377 ft | 162 kts | 78° |
| 2026-04-23 17:58 | 59.66500 | 17.99973 | 702 ft | 166 kts | 75° |
| 2026-04-23 17:58 | 59.66967 | 18.01965 | 1108 ft | 161 kts | 49° |
| 2026-04-23 17:58 | 59.67233 | 18.02614 | 1270 ft | 160 kts | 46° |
| 2026-04-23 17:59 | 59.70075 | 18.08435 | 2543 ft | 168 kts | 32° |
| 2026-04-23 17:59 | 59.71168 | 18.08984 | 2815 ft | 168 kts | 355° |
| 2026-04-23 17:59 | 59.72297 | 18.08229 | 2994 ft | 176 kts | 337° |
| 2026-04-23 18:00 | 59.73406 | 18.07053 | 3043 ft | 186 kts | 333° |
| 2026-04-23 18:00 | 59.74548 | 18.05742 | 3047 ft | 193 kts | 332° |
| 2026-04-23 18:00 | 59.75708 | 18.04389 | 3042 ft | 195 kts | 332° |
| 2026-04-23 18:00 | 59.76879 | 18.03015 | 3039 ft | 196 kts | 332° |
| 2026-04-23 18:01 | 59.78044 | 18.01648 | 3146 ft | 190 kts | 332° |
| 2026-04-23 18:01 | 59.79010 | 18.00339 | 3550 ft | 180 kts | 320° |
| 2026-04-23 18:01 | 59.79569 | 17.98440 | 3961 ft | 178 kts | 300° |
| 2026-04-23 18:01 | 59.80152 | 17.96359 | 4412 ft | 170 kts | 310° |
| 2026-04-23 18:02 | 59.80845 | 17.94447 | 4869 ft | 173 kts | 313° |
| 2026-04-23 18:02 | 59.81601 | 17.92496 | 5014 ft | 188 kts | 313° |
| 2026-04-23 18:02 | 59.82422 | 17.90386 | 5046 ft | 198 kts | 313° |
| 2026-04-23 18:02 | 59.83274 | 17.88197 | 5045 ft | 203 kts | 313° |
| 2026-04-23 18:03 | 59.84132 | 17.85993 | 5041 ft | 205 kts | 313° |
| 2026-04-23 18:03 | 59.85006 | 17.83752 | 5039 ft | 206 kts | 313° |
| 2026-04-23 18:03 | 59.85884 | 17.81500 | 5051 ft | 205 kts | 313° |
| 2026-04-23 18:03 | 59.86714 | 17.79349 | 5472 ft | 190 kts | 313° |
| 2026-04-23 18:04 | 59.87494 | 17.77293 | 5905 ft | 183 kts | 314° |
| 2026-04-23 18:04 | 59.88252 | 17.75315 | 6347 ft | 178 kts | 314° |
| 2026-04-23 18:04 | 59.88996 | 17.73373 | 6788 ft | 176 kts | 314° |
| 2026-04-23 18:04 | 59.89728 | 17.71449 | 7232 ft | 174 kts | 314° |
| 2026-04-23 18:05 | 59.90456 | 17.69525 | 7679 ft | 174 kts | 314° |
| 2026-04-23 18:05 | 59.91190 | 17.67617 | 8128 ft | 173 kts | 314° |
| 2026-04-23 18:05 | 59.91925 | 17.65728 | 8579 ft | 173 kts | 314° |
| 2026-04-23 18:05 | 59.92650 | 17.63857 | 9023 ft | 172 kts | 314° |
| 2026-04-23 18:06 | 59.93376 | 17.61973 | 9471 ft | 172 kts | 314° |
| 2026-04-23 18:06 | 59.94105 | 17.60075 | 9921 ft | 172 kts | 314° |
| 2026-04-23 18:06 | 59.94817 | 17.58215 | 10362 ft | 172 kts | 314° |
| 2026-04-23 18:06 | 59.95553 | 17.56288 | 10817 ft | 172 kts | 314° |
| 2026-04-23 18:07 | 59.96277 | 17.54382 | 11266 ft | 173 kts | 314° |
| 2026-04-23 18:07 | 59.97000 | 17.52470 | 11715 ft | 173 kts | 314° |
| 2026-04-23 18:07 | 59.97734 | 17.50563 | 12165 ft | 174 kts | 315° |
| 2026-04-23 18:07 | 59.98465 | 17.48678 | 12610 ft | 174 kts | 315° |
| 2026-04-23 18:08 | 59.98957 | 17.47405 | 12909 ft | 174 kts | 315° |
| 2026-04-23 18:08 | 59.99953 | 17.44825 | 13427 ft | 179 kts | 315° |
| 2026-04-23 18:08 | 60.00716 | 17.42846 | 13783 ft | 181 kts | 315° |
| 2026-04-23 18:08 | 60.01487 | 17.40841 | 14135 ft | 183 kts | 315° |
| 2026-04-23 18:09 | 60.02263 | 17.38816 | 14486 ft | 184 kts | 315° |
| 2026-04-23 18:09 | 60.03033 | 17.36791 | 14834 ft | 185 kts | 315° |
| 2026-04-23 18:09 | 60.03808 | 17.34735 | 15184 ft | 186 kts | 315° |
| 2026-04-23 18:09 | 60.04581 | 17.32675 | 15533 ft | 186 kts | 315° |
| 2026-04-23 18:10 | 60.05363 | 17.30621 | 15882 ft | 186 kts | 316° |
| 2026-04-23 18:10 | 60.06147 | 17.28566 | 16232 ft | 186 kts | 316° |
| 2026-04-23 18:10 | 60.06929 | 17.26501 | 16581 ft | 187 kts | 316° |
| 2026-04-23 18:10 | 60.07561 | 17.24684 | 16876 ft | 191 kts | 310° |
| 2026-04-23 18:11 | 60.08165 | 17.22299 | 17229 ft | 194 kts | 306° |
| 2026-04-23 18:11 | 60.08712 | 17.19815 | 17577 ft | 196 kts | 304° |
| 2026-04-23 18:11 | 60.09249 | 17.17301 | 17927 ft | 197 kts | 304° |
| 2026-04-23 18:11 | 60.09784 | 17.14758 | 18278 ft | 199 kts | 304° |
| 2026-04-23 18:12 | 60.10318 | 17.12210 | 18628 ft | 199 kts | 304° |
| 2026-04-23 18:12 | 60.10863 | 17.09659 | 18978 ft | 200 kts | 305° |
| 2026-04-23 18:12 | 60.11409 | 17.07103 | 19328 ft | 200 kts | 305° |
| 2026-04-23 18:12 | 60.11955 | 17.04535 | 19678 ft | 201 kts | 305° |
| 2026-04-23 18:13 | 60.12507 | 17.01933 | 19922 ft | 206 kts | 305° |
| 2026-04-23 18:13 | 60.13084 | 16.99241 | 20032 ft | 214 kts | 305° |
| 2026-04-23 18:13 | 60.13682 | 16.96450 | 20045 ft | 221 kts | 304° |
| 2026-04-23 18:13 | 60.14111 | 16.94415 | 20041 ft | 224 kts | 304° |
| 2026-04-23 18:14 | 60.14404 | 16.93020 | 20038 ft | 225 kts | 304° |
| 2026-04-23 18:14 | 60.15011 | 16.90123 | 20035 ft | 226 kts | 304° |
| 2026-04-23 18:14 | 60.15619 | 16.87220 | 20033 ft | 227 kts | 304° |
| 2026-04-23 18:14 | 60.16146 | 16.84704 | 20032 ft | 226 kts | 304° |
| 2026-04-23 18:15 | 60.16813 | 16.81880 | 20032 ft | 224 kts | 307° |
| 2026-04-23 18:15 | 60.17525 | 16.79118 | 20031 ft | 223 kts | 308° |
| 2026-04-23 18:15 | 60.18250 | 16.76377 | 20032 ft | 223 kts | 308° |
| 2026-04-23 18:15 | 60.18980 | 16.73635 | 20031 ft | 223 kts | 308° |
| 2026-04-23 18:16 | 60.19709 | 16.70903 | 20031 ft | 223 kts | 309° |
| 2026-04-23 18:16 | 60.20440 | 16.68162 | 20029 ft | 224 kts | 301° |
| 2026-04-23 18:16 | 60.21022 | 16.65971 | 20015 ft | 225 kts | 308° |
| 2026-04-23 18:17 | 60.22510 | 16.60305 | 19435 ft | 238 kts | 307° |
| 2026-04-23 18:17 | 60.23276 | 16.57364 | 19081 ft | 241 kts | 307° |
| 2026-04-23 18:17 | 60.24053 | 16.54383 | 18774 ft | 241 kts | 306° |
| 2026-04-23 18:17 | 60.24828 | 16.51404 | 18474 ft | 240 kts | 306° |
| 2026-04-23 18:18 | 60.25588 | 16.48422 | 18174 ft | 240 kts | 306° |
| 2026-04-23 18:18 | 60.26342 | 16.45447 | 17875 ft | 239 kts | 305° |
| 2026-04-23 18:18 | 60.27092 | 16.42486 | 17576 ft | 238 kts | 305° |
| 2026-04-23 18:18 | 60.27847 | 16.39522 | 17275 ft | 237 kts | 305° |
| 2026-04-23 18:19 | 60.28599 | 16.36581 | 16976 ft | 236 kts | 305° |
| 2026-04-23 18:19 | 60.29352 | 16.33656 | 16677 ft | 236 kts | 305° |
| 2026-04-23 18:19 | 60.30098 | 16.30718 | 16378 ft | 236 kts | 304° |
| 2026-04-23 18:19 | 60.30835 | 16.27775 | 16078 ft | 236 kts | 304° |
| 2026-04-23 18:20 | 60.31572 | 16.24833 | 15778 ft | 235 kts | 304° |
| 2026-04-23 18:20 | 60.32217 | 16.22270 | 15517 ft | 235 kts | 304° |
| 2026-04-23 18:20 | 60.32957 | 16.19338 | 15218 ft | 235 kts | 304° |
| 2026-04-23 18:20 | 60.33697 | 16.16425 | 14919 ft | 234 kts | 303° |
| 2026-04-23 18:21 | 60.34442 | 16.13489 | 14621 ft | 234 kts | 303° |
| 2026-04-23 18:21 | 60.35166 | 16.10581 | 14320 ft | 232 kts | 303° |
| 2026-04-23 18:21 | 60.35874 | 16.07727 | 14025 ft | 231 kts | 303° |
| 2026-04-23 18:21 | 60.36594 | 16.04833 | 13726 ft | 231 kts | 303° |
| 2026-04-23 18:22 | 60.37314 | 16.01943 | 13427 ft | 230 kts | 303° |
| 2026-04-23 18:22 | 60.37867 | 15.99728 | 13197 ft | 230 kts | 303° |
| 2026-04-23 18:22 | 60.38636 | 15.96648 | 12876 ft | 229 kts | 303° |
| 2026-04-23 18:22 | 60.39118 | 15.94721 | 12675 ft | 229 kts | 303° |
| 2026-04-23 18:23 | 60.39375 | 15.93695 | 12567 ft | 229 kts | 303° |
| 2026-04-23 18:23 | 60.41039 | 15.87061 | 11871 ft | 228 kts | 303° |
| 2026-04-23 18:24 | 60.42447 | 15.81343 | 11272 ft | 227 kts | 302° |
| 2026-04-23 18:24 | 60.43133 | 15.78501 | 10975 ft | 227 kts | 302° |
| 2026-04-23 18:24 | 60.43822 | 15.75647 | 10677 ft | 226 kts | 302° |
| 2026-04-23 18:25 | 60.45196 | 15.69953 | 10171 ft | 222 kts | 302° |
| 2026-04-23 18:25 | 60.45865 | 15.67168 | 10067 ft | 218 kts | 302° |
| 2026-04-23 18:25 | 60.46521 | 15.64428 | 10037 ft | 215 kts | 302° |
| 2026-04-23 18:25 | 60.47174 | 15.61718 | 10043 ft | 214 kts | 303° |
| 2026-04-23 18:26 | 60.47835 | 15.59026 | 10049 ft | 214 kts | 303° |
| 2026-04-23 18:26 | 60.48494 | 15.56356 | 10050 ft | 214 kts | 303° |
| 2026-04-23 18:26 | 60.49154 | 15.53688 | 10050 ft | 214 kts | 303° |
| 2026-04-23 18:26 | 60.49842 | 15.50907 | 10050 ft | 214 kts | 303° |
| 2026-04-23 18:27 | 60.50510 | 15.48204 | 10049 ft | 214 kts | 303° |
| 2026-04-23 18:27 | 60.51176 | 15.45506 | 10050 ft | 214 kts | 303° |
| 2026-04-23 18:27 | 60.51840 | 15.42811 | 10050 ft | 215 kts | 303° |
| 2026-04-23 18:27 | 60.52495 | 15.40096 | 10050 ft | 215 kts | 302° |
| 2026-04-23 18:28 | 60.53141 | 15.37367 | 10050 ft | 215 kts | 302° |
| 2026-04-23 18:28 | 60.53785 | 15.34634 | 9860 ft | 222 kts | 302° |
| 2026-04-23 18:28 | 60.54473 | 15.31757 | 9414 ft | 230 kts | 302° |
| 2026-04-23 18:28 | 60.55179 | 15.28820 | 8968 ft | 233 kts | 301° |
| 2026-04-23 18:29 | 60.55890 | 15.25853 | 8520 ft | 235 kts | 301° |
| 2026-04-23 18:29 | 60.56606 | 15.22871 | 8071 ft | 236 kts | 300° |
| 2026-04-23 18:29 | 60.57320 | 15.19876 | 7624 ft | 237 kts | 300° |
| 2026-04-23 18:29 | 60.58042 | 15.16863 | 7174 ft | 238 kts | 299° |
| 2026-04-23 18:30 | 60.58760 | 15.13839 | 6726 ft | 238 kts | 299° |
| 2026-04-23 18:30 | 60.59482 | 15.10809 | 6279 ft | 238 kts | 302° |
| 2026-04-23 18:30 | 60.60166 | 15.07851 | 5834 ft | 227 kts | 303° |
| 2026-04-23 18:30 | 60.60832 | 15.04992 | 5381 ft | 223 kts | 303° |
| 2026-04-23 18:31 | 60.61494 | 15.02187 | 4934 ft | 221 kts | 303° |
| 2026-04-23 18:31 | 60.62151 | 14.99393 | 4526 ft | 220 kts | 303° |
| 2026-04-23 18:31 | 60.62795 | 14.96625 | 4175 ft | 215 kts | 303° |
| 2026-04-23 18:31 | 60.63428 | 14.93906 | 3874 ft | 210 kts | 303° |
| 2026-04-23 18:32 | 60.64037 | 14.91294 | 3762 ft | 201 kts | 303° |
| 2026-04-23 18:32 | 60.64606 | 14.88831 | 3712 ft | 187 kts | 303° |
| 2026-04-23 18:32 | 60.65143 | 14.86526 | 3704 ft | 175 kts | 303° |
| 2026-04-23 18:32 | 60.65655 | 14.84328 | 3710 ft | 170 kts | 304° |
| 2026-04-23 18:33 | 60.66171 | 14.82174 | 3717 ft | 169 kts | 304° |
| 2026-04-23 18:33 | 60.66684 | 14.80049 | 3718 ft | 168 kts | 304° |
| 2026-04-23 18:33 | 60.67225 | 14.77827 | 3338 ft | 184 kts | 304° |
| 2026-04-23 18:33 | 60.67795 | 14.75455 | 3105 ft | 185 kts | 303° |
| 2026-04-23 18:34 | 60.68290 | 14.73367 | 3033 ft | 180 kts | 303° |
| 2026-04-23 18:34 | 60.69055 | 14.71523 | 3024 ft | 164 kts | 327° |
| 2026-04-23 18:34 | 60.70013 | 14.70360 | 3028 ft | 164 kts | 335° |
| 2026-04-23 18:34 | 60.71050 | 14.69359 | 3033 ft | 171 kts | 337° |
| 2026-04-23 18:35 | 60.72015 | 14.68481 | 3029 ft | 176 kts | 338° |
| 2026-04-23 18:35 | 60.73130 | 14.67540 | 3016 ft | 166 kts | 339° |
| 2026-04-23 18:35 | 60.74153 | 14.66713 | 2894 ft | 155 kts | 339° |
| 2026-04-23 18:35 | 60.75136 | 14.65929 | 2765 ft | 150 kts | 340° |
| 2026-04-23 18:36 | 60.76078 | 14.65182 | 2710 ft | 140 kts | 340° |
| 2026-04-23 18:36 | 60.76952 | 14.64490 | 2692 ft | 131 kts | 339° |
| 2026-04-23 18:36 | 60.77763 | 14.63864 | 2693 ft | 118 kts | 339° |
| 2026-04-23 18:36 | 60.78500 | 14.63301 | 2702 ft | 109 kts | 339° |
| 2026-04-23 18:37 | 60.79204 | 14.62765 | 2720 ft | 113 kts | 339° |
| 2026-04-23 18:37 | 60.80013 | 14.62146 | 2786 ft | 134 kts | 339° |
| 2026-04-23 18:37 | 60.80887 | 14.61474 | 2740 ft | 134 kts | 339° |
| 2026-04-23 18:37 | 60.81746 | 14.60814 | 2724 ft | 131 kts | 339° |
| 2026-04-23 18:38 | 60.82520 | 14.60220 | 2723 ft | 128 kts | 339° |
| 2026-04-23 18:38 | 60.83358 | 14.59633 | 2726 ft | 127 kts | 340° |
| 2026-04-23 18:38 | 60.84189 | 14.59072 | 2727 ft | 126 kts | 341° |
| 2026-04-23 18:38 | 60.85017 | 14.58517 | 2728 ft | 125 kts | 341° |
| 2026-04-23 18:39 | 60.85866 | 14.57947 | 2689 ft | 134 kts | 341° |
| 2026-04-23 18:39 | 60.86743 | 14.57355 | 2614 ft | 132 kts | 341° |
| 2026-04-23 18:39 | 60.87625 | 14.56760 | 2466 ft | 133 kts | 341° |
| 2026-04-23 18:39 | 60.88493 | 14.56175 | 2365 ft | 132 kts | 341° |
| 2026-04-23 18:40 | 60.89378 | 14.55575 | 2183 ft | 135 kts | 341° |
| 2026-04-23 18:40 | 60.90267 | 14.54957 | 1866 ft | 134 kts | 340° |
| 2026-04-23 18:40 | 60.91098 | 14.54371 | 1559 ft | 125 kts | 340° |
| 2026-04-23 18:40 | 60.91927 | 14.53790 | 1206 ft | 126 kts | 340° |
| 2026-04-23 18:41 | 60.92822 | 14.53171 | 1179 ft | 142 kts | 341° |
| 2026-04-23 18:41 | 60.93729 | 14.52528 | 1125 ft | 137 kts | 340° |
| 2026-04-23 18:41 | 60.94592 | 14.51933 | 842 ft | 126 kts | 341° |
| 2026-04-23 18:41 | 60.95373 | 14.51431 | 645 ft | 103 kts | 343° |
| 2026-04-23 18:42 | 60.95768 | 14.51147 | 638 ft | 36 kts | 341° |
| 2026-04-23 18:42 | 60.95949 | 14.50996 | 638 ft | 23 kts | 313° |
| 2026-04-23 18:42 | 60.95943 | 14.50877 | 638 ft | 17 kts | 251° |
| 2026-04-23 18:42 | 60.95897 | 14.50585 | 638 ft | 0 kts | 252° |
| 2026-04-23 18:43 | 60.95897 | 14.50584 | 638 ft | 0 kts | 252° |
| 2026-04-23 18:43 | 60.95897 | 14.50583 | 638 ft | 0 kts | 252° |